Atherton, Indiana
Current Conditions -  °F | °C
As of 3:53 PM on Tuesday 27 Jan 2015 (Local Time) from KHUF Reporting Station
Overcast Overcast  
Wind Chill: 24°   Ceiling: 1200
Heat Index: 31°   Visibility: 8mi
Dew Point: 26°   Wind: 7mph
Humidity: 82%   Direction: 10°N
Pressure: 30.17"   Gusts: NA
Location:  39.6386°N, 87.3045°W
Report Text: KHUF 272053Z 01006KT 8SM OVC012 M01/M03 A3017 RMK AO2 SLP222 T10061033 53015
Loading
Personal Weather Stations






























Interactive Weather Map New forecast layout! Learn more

10-Day Weather Forecast

Advertisements
Track Severe Weather on mobile